Station: PLZEN LINE, ICAO: LKLN, Synop: ,
Koordinaten: 49 41 N 013 16 E, Hoehe: 362m, Entfernung: 27.64km
2018/04/22 14:00
LKLN 221400Z AUTO VRB04KT 9999 FEW079 25/09 Q1015


Station: Karlovy Vary, ICAO: LKKV, Synop: Synop: 11414,
Koordinaten: 5012'00''N 01255'00''E, Hoehe: 603m, Entfernung: 87.27km
2018/04/22 14:00
LKKV 221400Z 29006KT 220V330 CAVOK 23/08 Q1015


Station: Kuemmersruck, ICAO: ETGK, Synop: Synop: 10771,
Koordinaten: 4926'00''N 01154'00''E, Hoehe: 419m, Entfernung: 94.54km


Station: GAERMERSDORF, ICAO: EDZH, Synop: ,
Koordinaten: 49 25 N 011 54 E, Hoehe: 419m, Entfernung: 94.58km


Station: Grafenwoehr, ICAO: ETIC, Synop: Synop: 10687,
Koordinaten: 4942'00''N 01157'00''E, Hoehe: 415m, Entfernung: 95.25km
2018/04/22 13:56
ETIC 221356Z AUTO 27005KT 9999 CLR 26/09 A2994 RMK AO2 SLP130 T02580092 $


Station: GRAFENWOHR (USA, ICAO: EDIC, Synop: ,
Koordinaten: 49 42 N 011 56 E, Hoehe: 415m, Entfernung: 96.40km


mehr Wetter
WetterInfo - adds.pl 2.6.003 DL3EL © 2004-2017 [374264]